Ellsworth, Minnesota
Current Conditions -  °F | °C
As of 1:14 AM on Friday 31 Oct 2014 (Local Time) from KLYV Reporting Station
Clear Clear  
Wind Chill: 23°   Ceiling: Unl
Heat Index: 32°   Visibility: 10mi
Dew Point: 21°   Wind: 13mph
Humidity: 64%   Direction: 350°N
Pressure: 30.48"   Gusts: 20mph
Location:  43.52°N, 96.02°W
Report Text: KLYV 310614Z AUTO 35011G17KT 10SM CLR 00/M06 A3048 RMK AO2
Loading
Personal Weather Stations






























Interactive Weather Map
Tropical Storm Tracking
New forecast layout! Learn more

10-Day Weather Forecast

Advertisements
Track Severe Weather on mobile